createdAt,value
2023-04-18T00:00:16.147Z,86.1171
2023-04-18T00:01:16.630Z,86.1866
2023-04-18T00:02:17.349Z,86.0183
2023-04-18T00:03:18.590Z,85.7127
2023-04-18T00:04:21.079Z,85.9149
2023-04-18T00:05:22.366Z,85.4731
2023-04-18T00:06:22.875Z,86.2612
2023-04-18T00:07:23.382Z,85.5248
2023-04-18T00:08:23.864Z,86.2678
2023-04-18T00:09:24.473Z,86.1276
2023-04-18T00:10:24.948Z,85.0800
2023-04-18T00:11:25.499Z,86.0145
2023-04-18T00:12:26.022Z,86.4951
2023-04-18T00:13:26.488Z,85.8130
2023-04-18T00:14:27.005Z,85.7091
2023-04-18T00:15:27.439Z,85.7992
2023-04-18T00:16:28.155Z,85.6970
2023-04-18T00:17:28.676Z,85.7298
2023-04-18T00:18:29.169Z,86.3609
2023-04-18T00:19:29.642Z,85.8255
2023-04-18T00:20:30.130Z,84.2123
2023-04-18T00:21:30.568Z,84.6462
2023-04-18T00:22:31.037Z,85.2613
2023-04-18T00:23:31.659Z,85.1127
2023-04-18T00:24:32.148Z,86.6496
2023-04-18T00:25:32.696Z,85.8884
2023-04-18T00:26:33.120Z,85.2829
2023-04-18T00:27:33.669Z,85.9821
2023-04-18T00:28:34.209Z,85.6508
2023-04-18T00:29:35.728Z,85.9106
2023-04-18T00:30:36.319Z,84.9288
2023-04-18T00:31:36.824Z,86.8647
2023-04-18T00:32:37.344Z,85.3219
2023-04-18T00:33:37.842Z,84.3940
2023-04-18T00:34:38.332Z,86.2625
2023-04-18T00:35:38.813Z,86.8523
2023-04-18T00:36:39.291Z,86.3157
2023-04-18T00:37:39.746Z,85.1041
2023-04-18T00:38:40.309Z,85.1390
2023-04-18T00:39:40.879Z,85.7991
2023-04-18T00:40:41.443Z,85.0003
2023-04-18T00:41:41.967Z,86.4485
2023-04-18T00:42:42.591Z,85.0418
2023-04-18T00:43:43.280Z,86.2370
2023-04-18T00:44:43.810Z,87.0545
2023-04-18T00:45:44.286Z,85.6840
2023-04-18T00:46:44.803Z,85.0293
2023-04-18T00:47:45.398Z,86.0443
2023-04-18T00:48:45.886Z,84.5458
2023-04-18T00:49:46.373Z,85.0029
2023-04-18T00:50:46.852Z,85.0758
2023-04-18T00:51:47.413Z,84.9046
2023-04-18T00:52:47.940Z,86.1064
2023-04-18T00:53:48.575Z,87.1701
2023-04-18T00:54:49.242Z,85.9839
2023-04-18T00:55:49.744Z,84.4661
2023-04-18T00:56:50.207Z,85.5470
2023-04-18T00:57:50.754Z,85.8065
2023-04-18T00:58:51.196Z,86.6833
2023-04-18T00:59:51.693Z,86.2027
2023-04-18T01:00:52.164Z,86.3042
2023-04-18T01:01:52.741Z,85.3171
2023-04-18T01:02:54.054Z,85.2788
2023-04-18T01:03:55.088Z,86.2695
2023-04-18T01:04:55.805Z,85.7086
2023-04-18T01:05:56.413Z,86.2592
2023-04-18T01:06:56.891Z,86.1413
2023-04-18T01:07:57.340Z,86.0842
2023-04-18T01:08:57.813Z,85.8372
2023-04-18T01:09:58.275Z,86.4817
2023-04-18T01:10:58.705Z,86.6478
2023-04-18T01:11:59.219Z,86.9783
2023-04-18T01:12:59.652Z,85.7782
2023-04-18T01:14:00.113Z,86.1856
2023-04-18T01:15:00.636Z,86.0262
2023-04-18T01:16:01.134Z,86.1407
2023-04-18T01:17:01.587Z,85.9654
2023-04-18T01:18:02.113Z,85.6377
2023-04-18T01:19:02.660Z,85.4351
2023-04-18T01:20:03.209Z,86.7364
2023-04-18T01:21:03.665Z,85.7796
2023-04-18T01:22:04.217Z,85.4247
2023-04-18T01:23:04.652Z,86.8853
2023-04-18T01:24:05.144Z,86.1465
2023-04-18T01:25:05.608Z,85.3288
2023-04-18T01:26:06.025Z,85.8487
2023-04-18T01:27:06.510Z,86.5420
2023-04-18T01:28:06.985Z,85.4966
2023-04-18T01:29:07.438Z,86.0522
2023-04-18T01:30:07.914Z,85.9626
2023-04-18T01:31:08.395Z,86.4074
2023-04-18T01:32:08.850Z,85.5089
2023-04-18T01:33:09.341Z,85.3202
2023-04-18T01:34:09.850Z,87.2556
2023-04-18T01:35:10.324Z,86.3867
2023-04-18T01:36:10.831Z,85.7655
2023-04-18T01:37:11.396Z,85.3509
2023-04-18T01:38:11.881Z,84.9095
2023-04-18T01:39:12.443Z,86.6321
2023-04-18T01:40:12.904Z,87.4043
2023-04-18T01:41:13.426Z,85.8772
2023-04-18T01:42:13.894Z,86.5456
2023-04-18T01:43:14.344Z,86.1671
2023-04-18T01:44:15.299Z,86.1265
2023-04-18T01:45:16.118Z,85.7249
2023-04-18T01:46:16.617Z,86.4596
2023-04-18T01:47:17.083Z,85.9030
2023-04-18T01:48:17.512Z,86.7054
2023-04-18T01:49:18.011Z,85.6396
2023-04-18T01:50:18.556Z,85.4270
2023-04-18T01:51:19.118Z,85.2535
2023-04-18T01:52:19.628Z,85.3828
2023-04-18T01:53:20.059Z,85.2052
2023-04-18T01:54:20.597Z,85.3485
2023-04-18T01:55:21.112Z,85.7027
2023-04-18T01:56:21.768Z,86.0096
2023-04-18T01:57:22.549Z,85.0874
2023-04-18T01:58:23.344Z,85.5182
2023-04-18T01:59:23.829Z,85.4268
2023-04-18T02:00:24.384Z,86.0451
2023-04-18T02:01:25.039Z,86.6277
2023-04-18T02:02:25.849Z,86.6719
2023-04-18T02:03:26.868Z,86.9613
2023-04-18T02:04:27.743Z,85.1303
2023-04-18T02:05:28.278Z,85.7412
2023-04-18T02:06:28.804Z,85.6652
2023-04-18T02:07:29.361Z,85.7716
2023-04-18T02:08:29.862Z,85.7646
2023-04-18T02:09:30.470Z,87.1477
2023-04-18T02:10:30.961Z,87.1025
2023-04-18T02:11:31.560Z,86.0118
2023-04-18T02:12:32.135Z,86.1601
2023-04-18T02:13:32.715Z,87.4839
2023-04-18T02:14:33.245Z,87.1597
2023-04-18T02:15:33.833Z,87.5679
2023-04-18T02:16:34.425Z,87.6458
2023-04-18T02:17:35.100Z,86.4914
2023-04-18T02:18:35.745Z,86.3631
2023-04-18T02:19:36.275Z,86.0356
2023-04-18T02:20:36.806Z,86.2389
2023-04-18T02:21:37.304Z,86.0296
2023-04-18T02:22:37.886Z,85.5647
2023-04-18T02:23:38.403Z,86.1047
2023-04-18T02:24:38.969Z,86.8096
2023-04-18T02:25:39.500Z,87.0108
2023-04-18T02:26:40.073Z,86.3844
2023-04-18T02:27:40.621Z,86.4283
2023-04-18T02:28:41.146Z,86.6931
2023-04-18T02:29:41.679Z,87.1129
2023-04-18T02:30:42.187Z,86.5334
2023-04-18T02:31:42.864Z,86.6034
2023-04-18T02:32:43.426Z,86.7764
2023-04-18T02:33:43.949Z,86.0117
2023-04-18T02:34:44.522Z,87.4145
2023-04-18T02:35:45.094Z,88.1312
2023-04-18T02:36:45.673Z,86.6631
2023-04-18T02:37:46.262Z,87.9171
2023-04-18T02:38:47.076Z,86.9322
2023-04-18T02:39:47.655Z,85.7948
2023-04-18T02:40:48.208Z,86.6443
2023-04-18T02:41:48.789Z,86.3487
2023-04-18T02:42:49.299Z,86.9368
2023-04-18T02:43:49.848Z,86.2090
2023-04-18T02:44:50.344Z,86.4409
2023-04-18T02:45:50.976Z,87.8212
2023-04-18T02:46:51.624Z,86.9695
2023-04-18T02:47:57.011Z,87.4612
2023-04-18T02:48:52.771Z,87.8216
2023-04-18T02:49:53.337Z,85.8492
2023-04-18T02:50:53.927Z,87.1207
2023-04-18T02:51:54.524Z,86.3897
2023-04-18T02:52:55.082Z,87.4822
2023-04-18T02:53:55.636Z,87.0795
2023-04-18T02:54:56.212Z,87.1010
2023-04-18T02:55:56.735Z,87.0209
2023-04-18T02:56:57.423Z,86.6565
2023-04-18T02:57:57.949Z,86.6441
2023-04-18T02:58:58.495Z,86.5965
2023-04-18T02:59:59.035Z,86.4409
2023-04-18T03:00:59.688Z,87.2883
2023-04-18T03:02:00.333Z,86.3465
2023-04-18T03:03:00.967Z,86.5410
2023-04-18T03:04:01.462Z,87.1095
2023-04-18T03:05:02.020Z,86.9405
2023-04-18T03:06:02.565Z,86.1621
2023-04-18T03:07:03.154Z,87.3208
2023-04-18T03:08:03.831Z,87.5517
2023-04-18T03:09:04.636Z,86.2931
2023-04-18T03:10:05.205Z,87.5232
2023-04-18T03:11:05.682Z,87.6898
2023-04-18T03:12:06.401Z,86.0117
2023-04-18T03:13:06.907Z,86.3157
2023-04-18T03:14:07.422Z,86.1027
2023-04-18T03:15:08.014Z,86.0851
2023-04-18T03:16:08.706Z,86.9172
2023-04-18T03:17:09.219Z,87.0008
2023-04-18T03:18:09.774Z,86.6390
2023-04-18T03:19:10.351Z,87.7167
2023-04-18T03:20:10.875Z,87.5919
2023-04-18T03:21:11.467Z,87.2591
2023-04-18T03:22:12.022Z,86.7409
2023-04-18T03:23:12.561Z,86.6986
2023-04-18T03:24:14.353Z,87.2435
2023-04-18T03:25:15.142Z,86.9878
2023-04-18T03:26:15.676Z,86.3210
2023-04-18T03:27:16.216Z,86.5376
2023-04-18T03:28:16.785Z,87.3042
2023-04-18T03:29:17.380Z,86.4156
2023-04-18T03:30:17.889Z,86.3171
2023-04-18T03:31:18.583Z,86.6420
2023-04-18T03:32:19.320Z,87.4606
2023-04-18T03:33:19.973Z,86.8724
2023-04-18T03:34:20.471Z,86.5683
2023-04-18T03:35:20.992Z,86.2963
2023-04-18T03:36:21.548Z,87.0305
2023-04-18T03:37:22.123Z,86.8495
2023-04-18T03:38:22.896Z,87.4289
2023-04-18T03:39:23.440Z,87.1555
2023-04-18T03:40:24.012Z,86.1344
2023-04-18T03:41:24.537Z,86.9730
2023-04-18T03:42:25.192Z,87.1990
2023-04-18T03:43:25.724Z,87.1347
2023-04-18T03:44:26.306Z,87.2528
2023-04-18T03:45:26.832Z,87.3516
2023-04-18T03:46:27.398Z,86.8554
2023-04-18T03:47:27.940Z,86.8263
2023-04-18T03:48:28.461Z,86.2295
2023-04-18T03:49:28.983Z,86.7652
2023-04-18T03:50:29.568Z,86.8039
2023-04-18T03:51:30.117Z,86.2321
2023-04-18T03:52:30.713Z,86.9973
2023-04-18T03:53:31.221Z,86.8038
2023-04-18T03:54:31.721Z,86.4203
2023-04-18T03:55:32.280Z,86.6897
2023-04-18T03:56:32.818Z,86.8426
2023-04-18T03:57:33.440Z,86.6029
2023-04-18T03:58:33.971Z,86.3676
2023-04-18T03:59:34.512Z,87.1670
2023-04-18T04:00:35.068Z,87.2684
2023-04-18T04:01:35.695Z,86.7823
2023-04-18T04:02:36.703Z,86.5067
2023-04-18T04:03:37.781Z,86.7644
2023-04-18T04:04:38.638Z,86.9158
2023-04-18T04:05:39.174Z,86.4416
2023-04-18T04:06:39.756Z,86.2400
2023-04-18T04:07:40.385Z,86.5113
2023-04-18T04:08:40.901Z,86.2930
2023-04-18T04:09:41.485Z,85.9544
2023-04-18T04:10:41.992Z,85.6114
2023-04-18T04:11:42.585Z,86.6286
2023-04-18T04:12:43.140Z,86.1698
2023-04-18T04:13:43.711Z,86.8892
2023-04-18T04:14:44.332Z,86.3042
2023-04-18T04:15:44.960Z,86.0107
2023-04-18T04:16:45.607Z,87.4616
2023-04-18T04:17:46.483Z,85.8367
2023-04-18T04:18:47.032Z,87.0732
2023-04-18T04:19:47.574Z,86.4257
2023-04-18T04:20:48.281Z,86.2682
2023-04-18T04:21:48.831Z,85.9912
2023-04-18T04:22:49.395Z,86.6680
2023-04-18T04:23:50.079Z,86.5591
2023-04-18T04:24:50.689Z,86.3780
2023-04-18T04:25:51.274Z,85.9684
2023-04-18T04:26:51.917Z,86.7063
2023-04-18T04:27:52.481Z,87.1736
2023-04-18T04:28:53.079Z,86.0529
2023-04-18T04:29:53.594Z,87.0493
2023-04-18T04:30:54.154Z,87.4846
2023-04-18T04:31:54.802Z,86.8779
2023-04-18T04:32:55.470Z,86.5362
2023-04-18T04:33:56.083Z,87.4990
2023-04-18T04:34:56.690Z,86.8461
2023-04-18T04:35:57.323Z,87.1554
2023-04-18T04:36:57.880Z,87.4960
2023-04-18T04:37:58.475Z,86.6464
2023-04-18T04:38:59.020Z,86.4106
2023-04-18T04:39:59.588Z,86.4065
2023-04-18T04:41:00.111Z,86.8299
2023-04-18T04:42:01.081Z,87.1066
2023-04-18T04:43:01.676Z,85.8712
2023-04-18T04:44:02.287Z,86.0339
2023-04-18T04:45:02.895Z,85.7231
2023-04-18T04:46:03.491Z,87.7807
2023-04-18T04:47:04.149Z,87.2648
2023-04-18T04:48:04.766Z,86.0157
2023-04-18T04:49:05.298Z,87.0347
2023-04-18T04:50:05.853Z,87.7791
2023-04-18T04:51:06.428Z,87.7367
2023-04-18T04:52:06.943Z,87.7689
2023-04-18T04:53:07.555Z,86.9043
2023-04-18T04:54:08.084Z,86.8778
2023-04-18T04:55:08.670Z,87.5433
2023-04-18T04:56:09.438Z,87.2225
2023-04-18T04:57:10.060Z,86.5456
2023-04-18T04:58:10.578Z,86.3941
2023-04-18T04:59:11.096Z,86.4963
2023-04-18T05:00:11.614Z,87.0806
2023-04-18T05:01:12.246Z,86.7380
2023-04-18T05:02:13.012Z,86.9598
2023-04-18T05:03:14.072Z,86.8359
2023-04-18T05:04:16.079Z,86.8695
2023-04-18T05:05:17.093Z,86.9715
2023-04-18T05:06:17.693Z,87.0862
2023-04-18T05:07:18.284Z,88.0049
2023-04-18T05:08:18.904Z,86.8108
2023-04-18T05:09:19.511Z,86.2386
2023-04-18T05:10:20.069Z,86.4275
2023-04-18T05:11:20.722Z,87.0191
2023-04-18T05:12:21.234Z,86.4139
2023-04-18T05:13:21.822Z,86.3683
2023-04-18T05:14:22.412Z,86.8123
2023-04-18T05:15:23.055Z,87.3999
2023-04-18T05:16:23.788Z,87.6967
2023-04-18T05:17:24.392Z,87.0699
2023-04-18T05:18:25.047Z,87.3617
2023-04-18T05:19:25.627Z,87.3212
2023-04-18T05:20:26.395Z,86.5729
2023-04-18T05:21:26.929Z,86.3483
2023-04-18T05:22:27.540Z,86.7152
2023-04-18T05:23:28.128Z,87.4174
2023-04-18T05:24:28.719Z,87.3993
2023-04-18T05:25:29.296Z,87.2388
2023-04-18T05:26:29.826Z,86.9278
2023-04-18T05:27:30.386Z,86.2671
2023-04-18T05:28:31.061Z,87.3953
2023-04-18T05:29:31.641Z,86.6698
2023-04-18T05:30:32.334Z,87.0185
2023-04-18T05:31:32.964Z,87.0556
2023-04-18T05:32:33.538Z,86.7026
2023-04-18T05:33:34.064Z,86.6390
2023-04-18T05:34:38.940Z,85.9195
2023-04-18T05:35:35.027Z,86.4755
2023-04-18T05:36:35.620Z,86.4976
2023-04-18T05:37:36.259Z,85.9217
2023-04-18T05:38:36.895Z,86.5068
2023-04-18T05:39:37.483Z,86.8763
2023-04-18T05:40:38.162Z,87.1528
2023-04-18T05:41:38.702Z,86.7108
2023-04-18T05:42:39.318Z,86.2478
2023-04-18T05:43:40.180Z,86.7039
2023-04-18T05:44:41.572Z,86.8428
2023-04-18T05:45:42.150Z,85.7454
2023-04-18T05:46:42.939Z,86.5207
2023-04-18T05:47:43.540Z,86.4388
2023-04-18T05:48:44.211Z,86.4379
2023-04-18T05:49:44.805Z,86.4710
2023-04-18T05:50:45.443Z,86.2727
2023-04-18T05:51:46.078Z,87.1584
2023-04-18T05:52:46.623Z,88.1050
2023-04-18T05:53:47.211Z,86.7124
2023-04-18T05:54:47.783Z,86.6592
2023-04-18T05:55:48.344Z,86.6155
2023-04-18T05:56:49.085Z,86.7704
2023-04-18T05:57:49.923Z,85.9212
2023-04-18T05:58:50.540Z,87.6384
2023-04-18T05:59:51.115Z,86.0088
2023-04-18T06:00:51.684Z,85.7217
2023-04-18T06:01:52.451Z,85.6934
2023-04-18T06:02:53.689Z,85.8879
2023-04-18T06:03:54.999Z,87.6851
2023-04-18T06:04:56.382Z,86.8056
2023-04-18T06:05:57.453Z,85.8466
2023-04-18T06:06:58.388Z,85.6383
2023-04-18T06:07:58.984Z,85.8543
2023-04-18T06:08:59.614Z,86.1958
2023-04-18T06:10:00.120Z,85.6944
2023-04-18T06:11:00.647Z,85.9462
2023-04-18T06:12:01.195Z,86.1032
2023-04-18T06:13:01.772Z,86.2733
2023-04-18T06:14:02.480Z,85.9342
2023-04-18T06:15:03.107Z,86.1357
2023-04-18T06:16:03.782Z,85.6998
2023-04-18T06:17:04.326Z,85.4740
2023-04-18T06:18:05.061Z,85.1759
2023-04-18T06:19:05.650Z,85.6374
2023-04-18T06:20:06.216Z,85.3391
2023-04-18T06:21:06.769Z,85.2351
2023-04-18T06:22:07.297Z,85.6057
2023-04-18T06:23:07.838Z,86.3197
2023-04-18T06:24:08.402Z,85.3657
2023-04-18T06:25:08.996Z,85.2272
2023-04-18T06:26:09.525Z,85.7306
2023-04-18T06:27:30.231Z,85.9126
2023-04-18T06:28:10.546Z,85.6210
2023-04-18T06:29:11.175Z,85.2251
2023-04-18T06:30:11.732Z,86.4688
2023-04-18T06:31:12.549Z,86.5285
2023-04-18T06:32:13.080Z,85.6568
2023-04-18T06:33:13.655Z,85.7898
2023-04-18T06:34:14.832Z,85.7101
2023-04-18T06:35:15.630Z,85.9930
2023-04-18T06:36:16.174Z,85.4978
2023-04-18T06:37:16.704Z,85.3731
2023-04-18T06:38:17.306Z,85.3798
2023-04-18T06:39:17.925Z,85.6988
2023-04-18T06:40:18.521Z,85.2896
2023-04-18T06:41:19.067Z,85.8025
2023-04-18T06:42:22.927Z,86.4162
2023-04-18T06:43:21.228Z,86.0545
2023-04-18T06:44:21.792Z,85.0272
2023-04-18T06:45:22.343Z,86.0050
2023-04-18T06:46:23.383Z,85.8320
2023-04-18T06:47:23.978Z,85.4501
2023-04-18T06:48:24.507Z,85.3325
2023-04-18T06:49:26.992Z,84.6104
2023-04-18T06:50:25.172Z,84.4168
2023-04-18T06:51:25.722Z,85.5250
2023-04-18T06:52:26.235Z,85.8119
2023-04-18T06:53:26.754Z,85.2566
2023-04-18T06:54:27.409Z,85.5913
2023-04-18T06:55:27.981Z,84.9567
2023-04-18T06:56:28.497Z,85.2319
2023-04-18T06:57:29.010Z,85.5177
2023-04-18T06:58:29.566Z,85.7680
2023-04-18T06:59:30.451Z,84.8035
2023-04-18T07:00:30.980Z,84.7882
2023-04-18T07:01:31.695Z,85.0526
2023-04-18T07:02:32.666Z,85.0304
2023-04-18T07:03:34.416Z,85.1199
2023-04-18T07:04:35.102Z,85.2482
2023-04-18T07:05:35.713Z,85.0861
2023-04-18T07:06:36.350Z,85.2942
2023-04-18T07:07:36.914Z,85.5811
2023-04-18T07:08:37.632Z,85.4372
2023-04-18T07:09:38.266Z,85.6460
2023-04-18T07:10:38.829Z,85.6151
2023-04-18T07:11:39.408Z,84.8955
2023-04-18T07:12:41.015Z,85.0837
2023-04-18T07:13:41.621Z,85.3734
2023-04-18T07:14:42.245Z,84.7656
2023-04-18T07:15:42.786Z,85.0314
2023-04-18T07:16:43.464Z,85.1036
2023-04-18T07:17:44.036Z,85.0790
2023-04-18T07:18:44.635Z,84.9144
2023-04-18T07:19:45.250Z,84.3903
2023-04-18T07:20:45.816Z,84.7394
2023-04-18T07:21:46.536Z,84.5934
2023-04-18T07:22:47.133Z,84.3228
2023-04-18T07:23:47.729Z,84.9443
2023-04-18T07:24:48.352Z,84.6976
2023-04-18T07:25:48.952Z,84.2031
2023-04-18T07:26:49.490Z,84.1737
2023-04-18T07:27:50.058Z,84.1057
2023-04-18T07:28:50.641Z,84.2694
2023-04-18T07:29:51.238Z,83.9874
2023-04-18T07:30:51.882Z,83.9415
2023-04-18T07:31:52.453Z,84.5158
2023-04-18T07:32:53.183Z,83.9705
2023-04-18T07:33:53.704Z,84.0465
2023-04-18T07:34:54.302Z,83.9570
2023-04-18T07:35:54.847Z,83.3583
2023-04-18T07:36:55.424Z,83.4495
2023-04-18T07:37:56.001Z,83.7000
2023-04-18T07:38:56.557Z,83.7402
2023-04-18T07:39:57.102Z,83.0280
2023-04-18T07:40:57.677Z,83.0880
2023-04-18T07:41:58.208Z,83.7740
2023-04-18T07:42:58.768Z,84.2050
2023-04-18T07:43:59.376Z,83.1919
2023-04-18T07:44:59.983Z,83.2925
2023-04-18T07:46:00.608Z,83.2394
2023-04-18T07:47:01.122Z,83.3204
2023-04-18T07:48:01.813Z,83.5873
2023-04-18T07:49:02.537Z,83.0456
2023-04-18T07:50:03.085Z,82.8845
2023-04-18T07:51:03.567Z,83.0914
2023-04-18T07:52:04.151Z,82.3152
2023-04-18T07:53:04.677Z,81.9740
2023-04-18T07:54:05.222Z,81.9189
2023-04-18T07:55:05.837Z,81.8923
2023-04-18T07:56:06.398Z,81.5760
2023-04-18T07:57:06.975Z,81.2158
2023-04-18T07:58:07.492Z,81.5627
2023-04-18T07:59:08.090Z,81.9962
2023-04-18T08:00:08.644Z,81.3123
2023-04-18T08:01:09.235Z,80.3411
2023-04-18T08:02:09.860Z,80.9220
2023-04-18T08:03:10.663Z,80.4429
2023-04-18T08:04:12.027Z,81.6779
2023-04-18T08:05:12.930Z,79.7053
2023-04-18T08:06:13.454Z,79.6139
2023-04-18T08:07:13.979Z,79.1864
2023-04-18T08:08:14.536Z,79.9609
2023-04-18T08:09:16.021Z,79.6274
2023-04-18T08:10:16.809Z,80.9133
2023-04-18T08:11:17.367Z,80.6877
2023-04-18T08:12:17.891Z,79.5440
2023-04-18T08:13:18.417Z,80.1928
2023-04-18T08:14:19.025Z,79.7584
2023-04-18T08:15:19.508Z,79.7970
2023-04-18T08:16:20.091Z,80.3948
2023-04-18T08:17:20.707Z,78.9209
2023-04-18T08:18:21.251Z,77.7363
2023-04-18T08:19:21.753Z,77.1823
2023-04-18T08:20:22.366Z,78.3520
2023-04-18T08:21:23.046Z,78.0812
2023-04-18T08:22:23.551Z,78.4239
2023-04-18T08:23:24.040Z,79.0531
2023-04-18T08:24:24.543Z,77.8885
2023-04-18T08:25:25.074Z,78.3015
2023-04-18T08:26:25.582Z,79.3211
2023-04-18T08:27:26.116Z,79.3436
2023-04-18T08:28:26.591Z,79.4465
2023-04-18T08:29:27.126Z,79.2009
2023-04-18T08:30:27.676Z,79.3995
2023-04-18T08:31:28.314Z,79.8962
2023-04-18T08:32:28.963Z,80.0429
2023-04-18T08:33:29.456Z,80.4471
2023-04-18T08:34:30.056Z,79.8977
2023-04-18T08:35:30.692Z,80.1591
2023-04-18T08:36:31.276Z,80.5866
2023-04-18T08:37:31.806Z,80.9525
2023-04-18T08:38:32.335Z,80.4587
2023-04-18T08:39:32.890Z,80.7280
2023-04-18T08:40:33.477Z,80.7225
2023-04-18T08:41:34.007Z,80.5602
2023-04-18T08:42:34.536Z,80.5089
2023-04-18T08:43:35.029Z,80.4922
2023-04-18T08:44:35.535Z,79.4776
2023-04-18T08:45:36.343Z,79.3733
2023-04-18T08:46:36.833Z,79.9370
2023-04-18T08:47:37.480Z,79.6504
2023-04-18T08:48:38.062Z,79.6226
2023-04-18T08:49:38.576Z,79.9025
2023-04-18T08:50:39.160Z,79.7898
2023-04-18T08:51:39.695Z,79.6213
2023-04-18T08:52:40.253Z,79.2165
2023-04-18T08:53:40.805Z,78.8617
2023-04-18T08:54:41.295Z,77.3628
2023-04-18T08:55:41.836Z,77.7055
2023-04-18T08:56:42.356Z,78.3078
2023-04-18T08:57:42.886Z,77.2581
2023-04-18T08:58:43.441Z,78.6076
2023-04-18T08:59:47.180Z,79.0083
2023-04-18T09:00:44.985Z,77.3488
2023-04-18T09:01:45.613Z,78.9440
2023-04-18T09:02:46.293Z,79.3290
2023-04-18T09:03:46.902Z,78.7061
2023-04-18T09:04:47.477Z,77.8941
2023-04-18T09:05:48.028Z,77.9624
2023-04-18T09:06:48.540Z,77.6943
2023-04-18T09:07:49.080Z,77.3968
2023-04-18T09:08:49.626Z,77.8129
2023-04-18T09:09:50.212Z,77.4121
2023-04-18T09:10:50.814Z,78.3045
2023-04-18T09:11:51.359Z,77.0662
2023-04-18T09:12:51.854Z,77.3286
2023-04-18T09:13:52.412Z,77.0900
2023-04-18T09:14:52.968Z,76.2872
2023-04-18T09:15:53.533Z,76.1175
2023-04-18T09:16:54.292Z,76.0328
2023-04-18T09:17:54.831Z,76.1816
2023-04-18T09:18:55.326Z,76.2520
2023-04-18T09:19:55.843Z,77.1170
2023-04-18T09:20:56.409Z,77.9879
2023-04-18T09:21:56.945Z,78.5057
2023-04-18T09:22:57.534Z,78.4344
2023-04-18T09:23:58.044Z,77.7415
2023-04-18T09:24:58.600Z,78.5021
2023-04-18T09:25:59.154Z,78.4119
2023-04-18T09:26:59.677Z,78.4624
2023-04-18T09:28:00.298Z,78.2453
2023-04-18T09:29:00.891Z,77.9615
2023-04-18T09:30:01.420Z,77.3165
2023-04-18T09:31:02.192Z,77.4135
2023-04-18T09:32:02.723Z,77.1555
2023-04-18T09:33:04.227Z,77.0298
2023-04-18T09:34:04.765Z,76.8764
2023-04-18T09:35:05.536Z,76.5687
2023-04-18T09:36:07.137Z,76.3928
2023-04-18T09:37:07.806Z,76.8133
2023-04-18T09:38:08.396Z,76.9519
2023-04-18T09:39:08.959Z,76.6284
2023-04-18T09:40:09.658Z,77.0675
2023-04-18T09:41:10.284Z,77.0106
2023-04-18T09:42:10.856Z,77.2522
2023-04-18T09:43:11.343Z,76.5932
2023-04-18T09:44:15.824Z,75.6554
2023-04-18T09:45:14.209Z,75.1557
2023-04-18T09:46:14.841Z,75.8474
2023-04-18T09:47:16.343Z,75.1555
2023-04-18T09:48:16.813Z,75.1683
2023-04-18T09:49:18.657Z,75.7844
2023-04-18T09:50:19.336Z,76.2954
2023-04-18T09:51:19.936Z,77.3114
2023-04-18T09:52:20.453Z,77.2293
2023-04-18T09:53:21.645Z,77.3325
2023-04-18T09:54:22.177Z,77.2896
2023-04-18T09:55:22.898Z,77.3884
2023-04-18T09:56:23.680Z,77.9236
2023-04-18T09:57:24.274Z,77.7537
2023-04-18T09:58:24.771Z,76.8219
2023-04-18T09:59:25.356Z,76.1959
2023-04-18T10:00:25.899Z,76.0062
2023-04-18T10:01:26.574Z,74.8680
2023-04-18T10:02:27.409Z,75.1981
2023-04-18T10:03:28.182Z,75.3320
2023-04-18T10:04:28.884Z,74.9969
2023-04-18T10:05:29.537Z,73.9721
2023-04-18T10:06:30.118Z,73.8172
2023-04-18T10:07:30.613Z,73.4639
2023-04-18T10:08:31.173Z,73.2005
2023-04-18T10:09:31.736Z,72.5045
2023-04-18T10:10:32.412Z,72.5112
2023-04-18T10:11:32.942Z,73.3196
2023-04-18T10:12:33.445Z,74.0725
2023-04-18T10:13:33.963Z,73.6999
2023-04-18T10:14:34.482Z,73.6134
2023-04-18T10:15:35.096Z,73.7331
2023-04-18T10:16:36.860Z,73.4807
2023-04-18T10:17:37.433Z,71.7181
2023-04-18T10:18:38.205Z,72.0709
2023-04-18T10:19:38.751Z,72.9471
2023-04-18T10:20:39.228Z,72.1913
2023-04-18T10:21:39.789Z,73.3539
2023-04-18T10:22:40.264Z,73.7388
2023-04-18T10:23:40.904Z,71.8705
2023-04-18T10:24:41.412Z,71.3898
2023-04-18T10:25:43.421Z,70.5344
2023-04-18T10:27:19.174Z,68.9618
2023-04-18T10:28:20.123Z,69.3189
2023-04-18T10:29:21.043Z,70.0323
2023-04-18T10:30:22.180Z,70.2692
2023-04-18T10:31:23.326Z,71.9640
2023-04-18T10:32:24.403Z,73.3120
2023-04-18T10:33:32.388Z,73.5031
2023-04-18T10:34:27.169Z,73.5070
2023-04-18T10:35:28.185Z,74.5945
2023-04-18T10:36:29.205Z,74.7200
2023-04-18T10:37:30.185Z,74.9590
2023-04-18T10:38:31.270Z,75.1536
2023-04-18T10:39:32.215Z,75.4404
2023-04-18T10:40:33.237Z,74.1686
2023-04-18T10:41:34.169Z,74.1273
2023-04-18T10:42:35.156Z,73.9601
2023-04-18T10:43:36.172Z,72.8014
2023-04-18T10:44:37.136Z,74.1496
2023-04-18T10:45:38.120Z,73.4353
2023-04-18T10:46:39.179Z,73.0433
2023-04-18T10:47:40.636Z,73.1116
2023-04-18T10:48:41.654Z,73.4787
2023-04-18T10:49:42.620Z,73.1310
2023-04-18T10:50:43.576Z,72.6380
2023-04-18T10:51:44.530Z,72.4392
2023-04-18T10:52:45.467Z,72.1774
2023-04-18T10:53:46.418Z,72.1314
2023-04-18T10:54:47.291Z,73.4329
2023-04-18T10:55:48.208Z,73.5389
2023-04-18T10:56:49.130Z,72.9935
2023-04-18T10:57:50.096Z,73.4538
2023-04-18T10:58:51.091Z,73.0544
2023-04-18T10:59:52.100Z,73.1897
2023-04-18T11:00:53.169Z,72.7676
2023-04-18T11:01:54.096Z,73.0122
2023-04-18T11:02:55.424Z,71.5568
2023-04-18T11:03:56.688Z,71.2933
2023-04-18T11:04:57.646Z,70.6989
2023-04-18T11:05:59.016Z,71.3479
2023-04-18T11:07:00.086Z,71.1073
2023-04-18T11:08:01.252Z,70.3790
2023-04-18T11:09:02.625Z,71.0601
2023-04-18T11:10:03.554Z,72.6634
2023-04-18T11:11:04.492Z,72.9804
2023-04-18T11:12:05.432Z,72.5308
2023-04-18T11:13:06.376Z,72.1389
2023-04-18T11:14:07.541Z,72.6396
2023-04-18T11:15:08.543Z,72.6976
2023-04-18T11:16:09.459Z,72.8888
2023-04-18T11:17:10.384Z,72.0429
2023-04-18T11:18:11.350Z,71.2253
2023-04-18T11:19:12.224Z,70.6550
2023-04-18T11:20:13.203Z,70.8297
2023-04-18T11:21:14.110Z,70.5638
2023-04-18T11:22:14.998Z,70.5864
2023-04-18T11:23:15.938Z,70.4914
2023-04-18T11:24:16.887Z,69.7092
2023-04-18T11:25:17.827Z,68.4770
2023-04-18T11:26:18.697Z,69.4843
2023-04-18T11:27:19.604Z,70.7988
2023-04-18T11:28:20.498Z,72.2828
2023-04-18T11:29:21.399Z,72.0238
2023-04-18T11:30:22.316Z,71.8700
2023-04-18T11:31:23.327Z,71.6976
2023-04-18T11:32:24.580Z,71.5049
2023-04-18T11:33:25.519Z,71.3769
2023-04-18T11:34:26.479Z,71.3537
2023-04-18T11:35:27.420Z,71.5932
2023-04-18T11:36:28.349Z,71.5176
2023-04-18T11:37:29.263Z,70.9946
2023-04-18T11:38:30.176Z,70.6986
2023-04-18T11:39:31.096Z,69.9764
2023-04-18T11:40:32.035Z,70.3889
2023-04-18T11:41:32.919Z,70.7885
2023-04-18T11:42:33.817Z,71.0965
2023-04-18T11:43:34.749Z,68.3045
2023-04-18T11:44:36.798Z,67.8511
2023-04-18T11:45:37.815Z,68.3946
2023-04-18T11:46:38.938Z,68.6723
2023-04-18T11:47:39.909Z,67.8889
2023-04-18T11:48:40.788Z,67.3125
2023-04-18T11:49:41.660Z,60.8025
2023-04-18T11:50:42.526Z,61.1410
2023-04-18T11:51:43.359Z,62.1393
2023-04-18T11:52:44.211Z,61.9525
2023-04-18T11:53:45.089Z,61.9022
2023-04-18T11:54:45.897Z,63.6464
2023-04-18T11:55:46.745Z,58.0471
2023-04-18T11:56:47.535Z,57.6425
2023-04-18T11:57:48.375Z,57.0920
2023-04-18T11:58:49.278Z,61.0118
2023-04-18T11:59:50.128Z,58.6849
2023-04-18T12:00:50.970Z,63.9816
2023-04-18T12:01:53.638Z,66.3600
2023-04-18T12:02:52.550Z,66.1486
2023-04-18T12:03:54.047Z,65.6195
2023-04-18T12:04:56.414Z,65.2181
2023-04-18T12:05:55.706Z,63.8993
2023-04-18T12:06:56.760Z,62.6427
2023-04-18T12:07:57.614Z,64.2114
2023-04-18T12:08:58.461Z,61.8483
2023-04-18T12:09:59.253Z,60.9646
2023-04-18T12:11:00.125Z,57.9858
2023-04-18T12:12:00.980Z,61.0786
2023-04-18T12:13:01.755Z,62.9471
2023-04-18T12:14:04.507Z,63.3918